OSOK1: Oswego hwy 160

                                SHEF ID:       OSOK1     Oswego hwy 160
STATION TYPE:

PRECIP STAGE RIV-FLOW VOLTAGE BAT-LOAD
in ft cfs volt volt
Ccp-Rev Ccp-Rev Ccp-Rev Ccp-Rev Ccp-Rev
(America/Chicago)
04/29 00:00 0.00 17.65 10186 12.78 12.50
04/29 01:00 0.00 17.44 9920 12.76 12.49
04/29 02:00 0.00 17.24 9667 12.74 12.47
04/29 03:00 0.00 17.02 9373 12.73 12.45
04/29 04:00 0.00 16.81 9064 12.71 12.44
04/29 05:00 0.00 16.58 8728 12.69 12.41
04/29 06:00 0.00 16.36 8411 12.67 12.39
04/29 07:00 0.00 16.14 8098 12.74 12.40
04/29 08:00 0.00 15.92 7789 14.27 13.32
04/29 09:00 0.00 15.70 7483 14.05 13.45
04/29 10:00 0.00 15.49 7195 13.53 13.25
04/29 11:00 0.00 15.28 6910 13.56 13.18
04/29 12:00 0.00 15.09 6647 13.59 13.13
04/29 13:00 0.00 14.91 6384 13.59 13.09
04/29 14:00 0.00 14.73 6126 13.59 13.07
04/29 15:00 0.00 14.55 5872 13.54 13.08
04/29 16:00 0.00 14.40 5663 13.59 13.03
04/29 17:00 0.00 14.25 5457 13.56 13.06
04/29 18:00 0.00 14.10 5254 13.63 13.03
04/29 19:00 0.00 13.97 5081 13.76 13.06
04/29 20:00 0.00 13.84 4909 13.24 13.03
04/29 21:00 0.00 13.72 4753 13.00 12.77
04/29 22:00 0.00 13.61 4612 12.87 12.62
04/29 23:00 0.00 13.49 4459 12.81 12.55
Data processed at Thu 30Apr2026 04:50 GMT

NOTICE: If you are parsing this page

Please convert to using our Data API. Starting early 2026 we will be migrating to: https://water.usace.army.mil with modern pages rendered in JavaScript. When this migration completes you will no longer be able to scrape this page! CWMSDataAPI (CDA)

Timeseries IDs (TSIDs)

TSIDs used from left to right in the data table
OSWN.Precip-Inc.Total.1Hour.1Hour.Ccp-Rev
OSWN.Stage.Inst.1Hour.0.Ccp-Rev
OSWN.Flow.Inst.1Hour.0.Ccp-Rev
OSWN.Volt-Battery.Inst.1Hour.0.Ccp-Rev
OSWN.Volt-Battery Load.Inst.1Hour.0.Ccp-Rev

                            

All information presented herein is the property of the government of the United States of America and may be revised or deleted at any time without prior notice. Dissemination of this information without the expressed written consent of the Public Affairs Office, Tulsa District U.S. Army Corps of Engineers is strictly prohibited. These data are gathered electronically and, as presented, have NOT undergone any form of quality control. These data are NOT guaranteed to be valid or correct.